sensor_id;sensor_type;location;lat;lon;timestamp;P1;durP1;ratioP1;P2;durP2;ratioP2
75207;SDS011;63795;55.684;37.864;2023-02-03T00:00:40;32.17;;;13.63;;
75207;SDS011;63795;55.684;37.864;2023-02-03T00:05:41;31.58;;;13.02;;
75207;SDS011;63795;55.684;37.864;2023-02-03T00:10:42;28.20;;;10.82;;
75207;SDS011;63795;55.684;37.864;2023-02-03T00:15:42;29.42;;;11.00;;
75207;SDS011;63795;55.684;37.864;2023-02-03T00:20:43;30.38;;;13.60;;
75207;SDS011;63795;55.684;37.864;2023-02-03T00:25:43;29.95;;;13.35;;
75207;SDS011;63795;55.684;37.864;2023-02-03T00:30:44;36.30;;;14.63;;
75207;SDS011;63795;55.684;37.864;2023-02-03T00:35:44;25.80;;;9.65;;
75207;SDS011;63795;55.684;37.864;2023-02-03T00:40:51;26.37;;;10.50;;
75207;SDS011;63795;55.684;37.864;2023-02-03T00:45:52;34.85;;;12.18;;
75207;SDS011;63795;55.684;37.864;2023-02-03T00:50:53;28.80;;;11.02;;
75207;SDS011;63795;55.684;37.864;2023-02-03T00:55:53;27.73;;;10.60;;
75207;SDS011;63795;55.684;37.864;2023-02-03T01:00:54;29.52;;;11.65;;
75207;SDS011;63795;55.684;37.864;2023-02-03T01:05:56;36.72;;;14.25;;
75207;SDS011;63795;55.684;37.864;2023-02-03T01:10:56;24.20;;;11.05;;
75207;SDS011;63795;55.684;37.864;2023-02-03T01:15:57;29.70;;;12.38;;
75207;SDS011;63795;55.684;37.864;2023-02-03T01:20:57;29.42;;;12.73;;
75207;SDS011;63795;55.684;37.864;2023-02-03T01:26:04;36.10;;;13.75;;
75207;SDS011;63795;55.684;37.864;2023-02-03T01:31:07;31.52;;;13.63;;
75207;SDS011;63795;55.684;37.864;2023-02-03T01:36:16;37.35;;;13.25;;
75207;SDS011;63795;55.684;37.864;2023-02-03T01:41:18;42.33;;;15.60;;
75207;SDS011;63795;55.684;37.864;2023-02-03T01:51:21;28.90;;;12.13;;
75207;SDS011;63795;55.684;37.864;2023-02-03T01:56:22;38.00;;;15.70;;
75207;SDS011;63795;55.684;37.864;2023-02-03T02:01:27;41.58;;;17.00;;
75207;SDS011;63795;55.684;37.864;2023-02-03T02:06:29;40.92;;;15.65;;
75207;SDS011;63795;55.684;37.864;2023-02-03T02:11:29;36.15;;;13.95;;
75207;SDS011;63795;55.684;37.864;2023-02-03T02:47:55;33.80;;;13.82;;
75207;SDS011;63795;55.684;37.864;2023-02-03T02:53:02;36.55;;;16.33;;
75207;SDS011;63795;55.684;37.864;2023-02-03T02:58:06;28.13;;;10.98;;
75207;SDS011;63795;55.684;37.864;2023-02-03T03:13:55;38.22;;;14.55;;
75207;SDS011;63795;55.684;37.864;2023-02-03T03:19:04;37.78;;;15.02;;
75207;SDS011;63795;55.684;37.864;2023-02-03T03:24:11;34.30;;;12.82;;
75207;SDS011;63795;55.684;37.864;2023-02-03T03:29:18;28.27;;;11.48;;
75207;SDS011;63795;55.684;37.864;2023-02-03T03:34:23;39.10;;;16.38;;
75207;SDS011;63795;55.684;37.864;2023-02-03T03:39:41;33.17;;;11.77;;
75207;SDS011;63795;55.684;37.864;2023-02-03T03:44:51;34.13;;;14.80;;
75207;SDS011;63795;55.684;37.864;2023-02-03T03:49:54;32.90;;;13.52;;
75207;SDS011;63795;55.684;37.864;2023-02-03T03:54:58;36.95;;;12.80;;
75207;SDS011;63795;55.684;37.864;2023-02-03T04:00:02;31.52;;;12.15;;
75207;SDS011;63795;55.684;37.864;2023-02-03T04:05:07;33.20;;;14.48;;
75207;SDS011;63795;55.684;37.864;2023-02-03T04:10:31;33.67;;;13.70;;
75207;SDS011;63795;55.684;37.864;2023-02-03T04:20:38;39.58;;;16.40;;
75207;SDS011;63795;55.684;37.864;2023-02-03T04:25:38;46.67;;;17.42;;
75207;SDS011;63795;55.684;37.864;2023-02-03T04:30:39;39.00;;;12.77;;
75207;SDS011;63795;55.684;37.864;2023-02-03T04:35:39;44.90;;;15.87;;
75207;SDS011;63795;55.684;37.864;2023-02-03T04:40:40;43.75;;;15.85;;
75207;SDS011;63795;55.684;37.864;2023-02-03T04:45:41;40.45;;;15.57;;
75207;SDS011;63795;55.684;37.864;2023-02-03T04:50:42;42.63;;;14.88;;
75207;SDS011;63795;55.684;37.864;2023-02-03T04:55:48;41.90;;;17.58;;
75207;SDS011;63795;55.684;37.864;2023-02-03T05:00:48;43.85;;;14.40;;
75207;SDS011;63795;55.684;37.864;2023-02-03T05:05:49;39.17;;;13.45;;
75207;SDS011;63795;55.684;37.864;2023-02-03T05:10:50;45.33;;;15.05;;
75207;SDS011;63795;55.684;37.864;2023-02-03T05:15:50;34.20;;;13.18;;
75207;SDS011;63795;55.684;37.864;2023-02-03T05:20:50;46.85;;;17.10;;
75207;SDS011;63795;55.684;37.864;2023-02-03T05:25:51;29.50;;;11.80;;
75207;SDS011;63795;55.684;37.864;2023-02-03T05:30:51;37.67;;;15.27;;
75207;SDS011;63795;55.684;37.864;2023-02-03T05:35:52;38.72;;;13.85;;
75207;SDS011;63795;55.684;37.864;2023-02-03T05:40:52;38.83;;;16.17;;
75207;SDS011;63795;55.684;37.864;2023-02-03T05:46:11;42.53;;;18.00;;
75207;SDS011;63795;55.684;37.864;2023-02-03T05:51:12;45.17;;;20.77;;
75207;SDS011;63795;55.684;37.864;2023-02-03T05:56:12;44.60;;;18.95;;
75207;SDS011;63795;55.684;37.864;2023-02-03T06:01:13;38.88;;;14.48;;
75207;SDS011;63795;55.684;37.864;2023-02-03T06:06:14;45.42;;;15.88;;
75207;SDS011;63795;55.684;37.864;2023-02-03T06:11:16;50.95;;;16.13;;
75207;SDS011;63795;55.684;37.864;2023-02-03T06:16:16;41.60;;;14.52;;
75207;SDS011;63795;55.684;37.864;2023-02-03T06:21:17;46.25;;;17.77;;
75207;SDS011;63795;55.684;37.864;2023-02-03T06:26:18;43.08;;;17.73;;
75207;SDS011;63795;55.684;37.864;2023-02-03T06:31:19;47.28;;;17.95;;
75207;SDS011;63795;55.684;37.864;2023-02-03T06:36:19;48.30;;;17.80;;
75207;SDS011;63795;55.684;37.864;2023-02-03T06:41:20;40.17;;;15.70;;
75207;SDS011;63795;55.684;37.864;2023-02-03T06:46:26;42.08;;;15.40;;
75207;SDS011;63795;55.684;37.864;2023-02-03T06:51:29;44.50;;;15.68;;
75207;SDS011;63795;55.684;37.864;2023-02-03T06:56:29;51.57;;;19.27;;
75207;SDS011;63795;55.684;37.864;2023-02-03T07:01:30;52.65;;;16.65;;
75207;SDS011;63795;55.684;37.864;2023-02-03T07:06:31;40.40;;;14.05;;
75207;SDS011;63795;55.684;37.864;2023-02-03T07:11:33;47.65;;;20.85;;
75207;SDS011;63795;55.684;37.864;2023-02-03T07:16:33;51.10;;;17.13;;
75207;SDS011;63795;55.684;37.864;2023-02-03T07:21:35;54.03;;;17.35;;
75207;SDS011;63795;55.684;37.864;2023-02-03T07:26:35;38.97;;;17.37;;
75207;SDS011;63795;55.684;37.864;2023-02-03T07:31:36;54.33;;;20.48;;
75207;SDS011;63795;55.684;37.864;2023-02-03T07:36:37;53.08;;;17.10;;
75207;SDS011;63795;55.684;37.864;2023-02-03T07:41:37;49.93;;;15.40;;
75207;SDS011;63795;55.684;37.864;2023-02-03T07:46:39;40.50;;;14.30;;
75207;SDS011;63795;55.684;37.864;2023-02-03T07:51:44;46.35;;;18.05;;
75207;SDS011;63795;55.684;37.864;2023-02-03T07:56:44;36.97;;;13.27;;
75207;SDS011;63795;55.684;37.864;2023-02-03T08:01:45;57.58;;;24.55;;
75207;SDS011;63795;55.684;37.864;2023-02-03T08:06:46;40.53;;;16.20;;
75207;SDS011;63795;55.684;37.864;2023-02-03T08:11:46;48.53;;;17.75;;
75207;SDS011;63795;55.684;37.864;2023-02-03T08:16:47;39.05;;;14.98;;
75207;SDS011;63795;55.684;37.864;2023-02-03T08:21:48;42.25;;;16.08;;
75207;SDS011;63795;55.684;37.864;2023-02-03T08:26:48;38.40;;;15.27;;
75207;SDS011;63795;55.684;37.864;2023-02-03T08:31:49;34.00;;;13.10;;
75207;SDS011;63795;55.684;37.864;2023-02-03T08:36:49;26.27;;;10.98;;
75207;SDS011;63795;55.684;37.864;2023-02-03T08:41:50;34.20;;;13.20;;
75207;SDS011;63795;55.684;37.864;2023-02-03T08:46:53;34.90;;;14.82;;
75207;SDS011;63795;55.684;37.864;2023-02-03T08:51:53;34.00;;;14.15;;
75207;SDS011;63795;55.684;37.864;2023-02-03T08:56:54;40.63;;;16.05;;
75207;SDS011;63795;55.684;37.864;2023-02-03T09:01:55;41.08;;;17.23;;
75207;SDS011;63795;55.684;37.864;2023-02-03T09:06:59;40.47;;;15.02;;
75207;SDS011;63795;55.684;37.864;2023-02-03T09:12:01;39.55;;;14.82;;
75207;SDS011;63795;55.684;37.864;2023-02-03T09:17:04;43.55;;;15.38;;
75207;SDS011;63795;55.684;37.864;2023-02-03T09:22:07;44.78;;;18.42;;
75207;SDS011;63795;55.684;37.864;2023-02-03T09:27:07;39.67;;;16.08;;
75207;SDS011;63795;55.684;37.864;2023-02-03T09:32:08;35.95;;;14.73;;
75207;SDS011;63795;55.684;37.864;2023-02-03T09:37:09;37.78;;;15.43;;
75207;SDS011;63795;55.684;37.864;2023-02-03T09:47:28;35.45;;;12.48;;
75207;SDS011;63795;55.684;37.864;2023-02-03T09:52:36;34.30;;;14.70;;
75207;SDS011;63795;55.684;37.864;2023-02-03T09:57:41;31.27;;;12.50;;
75207;SDS011;63795;55.684;37.864;2023-02-03T10:08:20;40.38;;;15.55;;
75207;SDS011;63795;55.684;37.864;2023-02-03T10:13:30;31.25;;;12.38;;
75207;SDS011;63795;55.684;37.864;2023-02-03T10:18:40;31.75;;;13.68;;
75207;SDS011;63795;55.684;37.864;2023-02-03T10:23:46;33.13;;;16.65;;
75207;SDS011;63795;55.684;37.864;2023-02-03T10:28:55;32.92;;;10.90;;
75207;SDS011;63795;55.684;37.864;2023-02-03T10:34:09;23.38;;;9.00;;
75207;SDS011;63795;55.684;37.864;2023-02-03T10:44:35;19.75;;;8.77;;
75207;SDS011;63795;55.684;37.864;2023-02-03T10:49:38;22.33;;;9.13;;
75207;SDS011;63795;55.684;37.864;2023-02-03T10:54:38;21.20;;;9.00;;
75207;SDS011;63795;55.684;37.864;2023-02-03T10:59:45;25.08;;;9.40;;
75207;SDS011;63795;55.684;37.864;2023-02-03T11:04:47;20.40;;;10.23;;
75207;SDS011;63795;55.684;37.864;2023-02-03T11:09:47;17.05;;;7.63;;
75207;SDS011;63795;55.684;37.864;2023-02-03T11:14:59;25.00;;;11.10;;
75207;SDS011;63795;55.684;37.864;2023-02-03T11:20:14;19.33;;;7.72;;
75207;SDS011;63795;55.684;37.864;2023-02-03T11:25:19;22.75;;;9.65;;
75207;SDS011;63795;55.684;37.864;2023-02-03T11:30:26;15.13;;;7.15;;
75207;SDS011;63795;55.684;37.864;2023-02-03T11:35:30;18.85;;;7.93;;
75207;SDS011;63795;55.684;37.864;2023-02-03T11:40:32;15.73;;;6.25;;
75207;SDS011;63795;55.684;37.864;2023-02-03T11:45:36;18.98;;;8.93;;
75207;SDS011;63795;55.684;37.864;2023-02-03T11:55:46;21.95;;;10.10;;
75207;SDS011;63795;55.684;37.864;2023-02-03T12:34:12;13.98;;;5.05;;
75207;SDS011;63795;55.684;37.864;2023-02-03T12:39:20;11.18;;;4.70;;
75207;SDS011;63795;55.684;37.864;2023-02-03T12:44:49;9.43;;;3.67;;
75207;SDS011;63795;55.684;37.864;2023-02-03T12:49:58;12.57;;;4.22;;
75207;SDS011;63795;55.684;37.864;2023-02-03T13:00:44;11.82;;;4.18;;
75207;SDS011;63795;55.684;37.864;2023-02-03T13:16:43;15.93;;;4.50;;
75207;SDS011;63795;55.684;37.864;2023-02-03T13:21:46;22.25;;;9.15;;
75207;SDS011;63795;55.684;37.864;2023-02-03T13:32:09;14.38;;;6.05;;
75207;SDS011;63795;55.684;37.864;2023-02-03T13:42:30;21.35;;;10.10;;
75207;SDS011;63795;55.684;37.864;2023-02-03T13:47:32;16.05;;;7.05;;
75207;SDS011;63795;55.684;37.864;2023-02-03T13:52:34;17.75;;;6.00;;
75207;SDS011;63795;55.684;37.864;2023-02-03T13:57:41;14.75;;;6.55;;
75207;SDS011;63795;55.684;37.864;2023-02-03T14:02:43;15.43;;;8.75;;
75207;SDS011;63795;55.684;37.864;2023-02-03T14:07:50;15.63;;;5.80;;
75207;SDS011;63795;55.684;37.864;2023-02-03T14:22:54;22.63;;;11.30;;
75207;SDS011;63795;55.684;37.864;2023-02-03T14:27:59;27.30;;;10.48;;
75207;SDS011;63795;55.684;37.864;2023-02-03T14:33:02;25.98;;;12.00;;
75207;SDS011;63795;55.684;37.864;2023-02-03T14:38:07;26.98;;;13.93;;
75207;SDS011;63795;55.684;37.864;2023-02-03T14:59:18;59.30;;;27.65;;
75207;SDS011;63795;55.684;37.864;2023-02-03T15:04:23;26.27;;;13.27;;
75207;SDS011;63795;55.684;37.864;2023-02-03T15:14:26;22.63;;;10.52;;
75207;SDS011;63795;55.684;37.864;2023-02-03T15:19:34;34.03;;;14.45;;
75207;SDS011;63795;55.684;37.864;2023-02-03T15:24:37;27.08;;;11.07;;
75207;SDS011;63795;55.684;37.864;2023-02-03T15:29:38;27.70;;;14.73;;
75207;SDS011;63795;55.684;37.864;2023-02-03T15:34:40;26.15;;;9.82;;
75207;SDS011;63795;55.684;37.864;2023-02-03T15:39:46;39.17;;;17.25;;
75207;SDS011;63795;55.684;37.864;2023-02-03T15:44:53;27.98;;;12.15;;
75207;SDS011;63795;55.684;37.864;2023-02-03T15:50:07;32.28;;;15.32;;
75207;SDS011;63795;55.684;37.864;2023-02-03T15:55:36;44.25;;;16.38;;
75207;SDS011;63795;55.684;37.864;2023-02-03T16:00:41;42.35;;;23.40;;
75207;SDS011;63795;55.684;37.864;2023-02-03T16:05:41;29.95;;;12.65;;
75207;SDS011;63795;55.684;37.864;2023-02-03T16:10:47;25.50;;;10.82;;
75207;SDS011;63795;55.684;37.864;2023-02-03T16:16:04;72.20;;;29.57;;
75207;SDS011;63795;55.684;37.864;2023-02-03T16:21:24;25.48;;;12.15;;
75207;SDS011;63795;55.684;37.864;2023-02-03T16:26:33;22.10;;;8.75;;
75207;SDS011;63795;55.684;37.864;2023-02-03T16:31:37;22.83;;;9.45;;
75207;SDS011;63795;55.684;37.864;2023-02-03T16:37:11;20.92;;;9.38;;
75207;SDS011;63795;55.684;37.864;2023-02-03T16:42:38;22.52;;;9.75;;
75207;SDS011;63795;55.684;37.864;2023-02-03T16:47:58;25.23;;;12.27;;
75207;SDS011;63795;55.684;37.864;2023-02-03T16:53:21;25.38;;;11.48;;
75207;SDS011;63795;55.684;37.864;2023-02-03T16:58:23;20.27;;;8.32;;
75207;SDS011;63795;55.684;37.864;2023-02-03T17:03:25;20.30;;;8.13;;
75207;SDS011;63795;55.684;37.864;2023-02-03T17:08:26;15.68;;;6.25;;
75207;SDS011;63795;55.684;37.864;2023-02-03T17:13:27;21.67;;;10.07;;
75207;SDS011;63795;55.684;37.864;2023-02-03T17:18:27;12.50;;;4.30;;
75207;SDS011;63795;55.684;37.864;2023-02-03T17:23:28;15.75;;;7.15;;
75207;SDS011;63795;55.684;37.864;2023-02-03T17:28:28;19.50;;;8.30;;
75207;SDS011;63795;55.684;37.864;2023-02-03T17:33:29;14.40;;;6.60;;
75207;SDS011;63795;55.684;37.864;2023-02-03T17:38:35;18.55;;;7.70;;
75207;SDS011;63795;55.684;37.864;2023-02-03T17:43:46;20.48;;;7.32;;
75207;SDS011;63795;55.684;37.864;2023-02-03T17:48:48;13.88;;;6.13;;
75207;SDS011;63795;55.684;37.864;2023-02-03T17:53:49;17.75;;;6.65;;
75207;SDS011;63795;55.684;37.864;2023-02-03T17:58:56;18.88;;;7.80;;
75207;SDS011;63795;55.684;37.864;2023-02-03T18:04:02;17.85;;;6.78;;
75207;SDS011;63795;55.684;37.864;2023-02-03T18:09:04;21.13;;;7.90;;
75207;SDS011;63795;55.684;37.864;2023-02-03T18:14:06;16.50;;;7.68;;
75207;SDS011;63795;55.684;37.864;2023-02-03T18:19:12;18.05;;;6.50;;
75207;SDS011;63795;55.684;37.864;2023-02-03T18:24:14;16.27;;;7.03;;
75207;SDS011;63795;55.684;37.864;2023-02-03T18:34:18;15.23;;;5.45;;
75207;SDS011;63795;55.684;37.864;2023-02-03T18:39:18;13.68;;;5.75;;
75207;SDS011;63795;55.684;37.864;2023-02-03T18:44:19;12.43;;;6.43;;
75207;SDS011;63795;55.684;37.864;2023-02-03T18:49:20;14.02;;;5.70;;
75207;SDS011;63795;55.684;37.864;2023-02-03T18:54:20;22.20;;;5.60;;
75207;SDS011;63795;55.684;37.864;2023-02-03T18:59:21;14.33;;;6.30;;
75207;SDS011;63795;55.684;37.864;2023-02-03T19:04:21;12.88;;;3.53;;
75207;SDS011;63795;55.684;37.864;2023-02-03T19:09:22;11.50;;;4.57;;
75207;SDS011;63795;55.684;37.864;2023-02-03T19:14:24;8.65;;;3.35;;
75207;SDS011;63795;55.684;37.864;2023-02-03T19:19:24;6.78;;;2.88;;
75207;SDS011;63795;55.684;37.864;2023-02-03T19:24:28;5.70;;;2.33;;
75207;SDS011;63795;55.684;37.864;2023-02-03T19:29:28;4.60;;;2.28;;
75207;SDS011;63795;55.684;37.864;2023-02-03T19:34:29;4.18;;;1.48;;
75207;SDS011;63795;55.684;37.864;2023-02-03T19:39:29;6.53;;;1.33;;
75207;SDS011;63795;55.684;37.864;2023-02-03T19:44:31;10.63;;;2.28;;
75207;SDS011;63795;55.684;37.864;2023-02-03T19:49:31;6.43;;;1.92;;
75207;SDS011;63795;55.684;37.864;2023-02-03T19:54:32;19.13;;;3.05;;
75207;SDS011;63795;55.684;37.864;2023-02-03T19:59:33;6.80;;;2.75;;
75207;SDS011;63795;55.684;37.864;2023-02-03T20:04:34;11.27;;;4.00;;
75207;SDS011;63795;55.684;37.864;2023-02-03T20:09:34;7.07;;;3.42;;
75207;SDS011;63795;55.684;37.864;2023-02-03T20:14:35;6.95;;;3.20;;
75207;SDS011;63795;55.684;37.864;2023-02-03T20:19:35;5.07;;;2.58;;
75207;SDS011;63795;55.684;37.864;2023-02-03T20:24:36;5.20;;;1.08;;
75207;SDS011;63795;55.684;37.864;2023-02-03T20:29:36;8.87;;;3.23;;
75207;SDS011;63795;55.684;37.864;2023-02-03T20:34:37;7.10;;;2.70;;
75207;SDS011;63795;55.684;37.864;2023-02-03T20:39:37;5.55;;;2.15;;
75207;SDS011;63795;55.684;37.864;2023-02-03T20:44:38;7.43;;;2.50;;
75207;SDS011;63795;55.684;37.864;2023-02-03T20:49:38;4.82;;;2.33;;
75207;SDS011;63795;55.684;37.864;2023-02-03T20:54:39;4.45;;;2.20;;
75207;SDS011;63795;55.684;37.864;2023-02-03T20:59:40;7.75;;;4.07;;
75207;SDS011;63795;55.684;37.864;2023-02-03T21:04:43;5.95;;;2.22;;
75207;SDS011;63795;55.684;37.864;2023-02-03T21:09:59;6.72;;;3.65;;
75207;SDS011;63795;55.684;37.864;2023-02-03T21:15:43;7.15;;;2.53;;
75207;SDS011;63795;55.684;37.864;2023-02-03T21:20:36;4.43;;;1.95;;
75207;SDS011;63795;55.684;37.864;2023-02-03T21:25:37;5.50;;;1.70;;
75207;SDS011;63795;55.684;37.864;2023-02-03T21:30:38;4.47;;;2.22;;
75207;SDS011;63795;55.684;37.864;2023-02-03T21:35:44;6.18;;;2.28;;
75207;SDS011;63795;55.684;37.864;2023-02-03T21:40:45;4.97;;;2.17;;
75207;SDS011;63795;55.684;37.864;2023-02-03T21:45:46;2.58;;;1.00;;
75207;SDS011;63795;55.684;37.864;2023-02-03T21:50:48;5.13;;;1.30;;
75207;SDS011;63795;55.684;37.864;2023-02-03T21:55:48;6.37;;;1.93;;
75207;SDS011;63795;55.684;37.864;2023-02-03T22:00:50;5.78;;;2.13;;
75207;SDS011;63795;55.684;37.864;2023-02-03T22:06:03;7.13;;;2.63;;
75207;SDS011;63795;55.684;37.864;2023-02-03T22:11:15;3.70;;;1.35;;
75207;SDS011;63795;55.684;37.864;2023-02-03T22:16:17;9.35;;;2.05;;
75207;SDS011;63795;55.684;37.864;2023-02-03T22:21:18;2.38;;;1.55;;
75207;SDS011;63795;55.684;37.864;2023-02-03T22:26:19;10.35;;;2.50;;
75207;SDS011;63795;55.684;37.864;2023-02-03T22:31:20;4.93;;;1.83;;
75207;SDS011;63795;55.684;37.864;2023-02-03T22:36:21;4.82;;;1.70;;
75207;SDS011;63795;55.684;37.864;2023-02-03T22:41:22;5.85;;;3.47;;
75207;SDS011;63795;55.684;37.864;2023-02-03T22:46:22;6.67;;;1.67;;
75207;SDS011;63795;55.684;37.864;2023-02-03T22:51:23;3.80;;;1.63;;
75207;SDS011;63795;55.684;37.864;2023-02-03T22:56:23;5.17;;;2.43;;
75207;SDS011;63795;55.684;37.864;2023-02-03T23:01:24;6.00;;;1.37;;
75207;SDS011;63795;55.684;37.864;2023-02-03T23:06:24;6.37;;;1.90;;
75207;SDS011;63795;55.684;37.864;2023-02-03T23:11:24;9.63;;;2.13;;
75207;SDS011;63795;55.684;37.864;2023-02-03T23:16:25;6.03;;;2.00;;
75207;SDS011;63795;55.684;37.864;2023-02-03T23:21:25;4.72;;;2.53;;
75207;SDS011;63795;55.684;37.864;2023-02-03T23:26:26;4.85;;;1.80;;
75207;SDS011;63795;55.684;37.864;2023-02-03T23:31:26;3.30;;;1.95;;
75207;SDS011;63795;55.684;37.864;2023-02-03T23:36:27;5.07;;;3.15;;
75207;SDS011;63795;55.684;37.864;2023-02-03T23:41:27;5.73;;;1.70;;
75207;SDS011;63795;55.684;37.864;2023-02-03T23:46:28;5.93;;;1.77;;
75207;SDS011;63795;55.684;37.864;2023-02-03T23:51:28;5.73;;;1.50;;
75207;SDS011;63795;55.684;37.864;2023-02-03T23:56:29;7.45;;;2.60;;
